Covington, VA

3:05 PM EST on February 08, 2016 (GMT -0500)
Rich Patch Rd between Bensrun Rd and blue Spring Run Rd | | Change Station
CLOSE
Current Station
Personal Weather Station
Location: Covington, VA
Elevation: 1604 ft
Nearby Weather Stations
Active Advisory: Winter Storm Watch

Elev 1604 ft 37.68 °N, 80.07 °W | Updated 7 minutes ago

Mostly Cloudy
Mostly Cloudy
39.2 °F
Feels Like 39 °F
N
1.1
Wind Variable Wind from ENE

Today
High -- | Low -- °F
--% Chance of Precip.
Yesterday
High -- | Low -- °F
Precip. -- in
Pressure 29.60 in
Visibility 1.2 miles
Clouds Overcast 400 ft
Windchill 39 °F
Dew Point 37 °F
Humidity 91%
Rainfall 0.00 in
Snow Depth Not available.
7:18 AM 5:51 PM
New Moon, 0% visible
METAR KLWB 081955Z AUTO 23006KT 1 1/4SM -SN OVC004 02/01 A2960 RMK AO2 P0001 T00210012
Pressure 29.60 in
Visibility 1.2 miles
Clouds Overcast 400 ft
Windchill 39 °F
Dew Point 37 °F
Humidity 91%
Rainfall 0.00 in
Snow Depth Not available.
7:18 AM 5:51 PM
New Moon, 0% visible
METAR KLWB 081955Z AUTO 23006KT 1 1/4SM -SN OVC004 02/01 A2960 RMK AO2 P0001 T00210012

10-Day Weather Forecast

Almanac

Astronomy

Feb. 08, 2016 Rise Set
Actual Time
Civil Twilight
Nautical Twilight
Astronomical Twilight
Moon
Length of Visible Light
Length of Day
Tomorrow will be .
, % of the Moon is Illuminated

Today's Extremes

State Highs State Lows

Community

WunderPhotos

Upload Photos

1,891,503 photos uploaded!

WunderBlog® & News

Nearby

Air Quality

  Air Quality AQ Index Pollutant
Not available.

Snow Depth

Station Depth Elevation

Earthquake Activity

City Distance Mag. Time & Date
Minimum magnitude displayed is 2.5.

Coastal Water Temperatures

Place Temperature

Stations

Nearby Weather Stations

Station Location Temp. Windchill Dew Point Humidity Wind Precip. Elev Updated Type
                   

Watches & Warnings

Winter Storm Watch
Issued: 10:45 AM EST Feb. 8, 2016 – National Weather Service

... Winter Storm Watch remains in effect from 6 PM EST this
evening through Thursday morning...

* locations... along and just west of the Blue Ridge mountains.

* Hazard types... snow showers.

* Accumulations... occasional snow showers will persist through
mid week resulting in moderate to heavy accumulations of snow
especially along higher ridge tops and west facing slopes.

* Timing... rain mixed with snow today will change to all snow
tonight... with all snow expected the rest of the week.

* Impacts... roads will become snow covered and slick.

* Temperatures... in the 30s today... dropping below freezing
tonight and remaining in the teens and 20s for the rest of the
week.

* Wind chills... as cold as 5 to 15 below zero Wednesday night.

Precautionary/preparedness actions...

A Winter Storm Watch means there is a potential for significant
snow that may impact travel. Continue to monitor the latest
forecasts.


Rcs